Frankfurt Rhein-Main (FRA/EDDF)




Flight Aircraft Arriving
CPX1132 B738
EBLG - Liège Airport
Belgium Liege, Belgium
Flight Aircraft Departing
CPX1131 B738
EBLG - Liège Airport
Belgium Liege, Belgium
Airport Information
Location: Frankfurt, DE
Coordinates: 50.0333 / 8.57046
Elevation:
Time Offset:
Local Time:
UTC Time:
Jet A Price: $/lbs

Current Weather
METAR: EDDF 261350Z 05009KT 010V090 CAVOK 19/06 Q1034 NOSIG
TAF: TAF EDDF 261100Z 2612/2718 04006KT 9999 SCT045 BECMG 2618/2621 VRB03KT BECMG 2709/2711 05005KT

Recent Arrivals
Date Flight Type Depart
04/24/2020 CPX1131 B738 Liège Airport (EBLG)
03/26/2020 CPX1131 B738 Liège Airport (EBLG)
01/14/2020 CPX1131 B738 Liège Airport (EBLG)
11/27/2019 CPX1131 B738 Liège Airport (EBLG)
10/28/2019 CPX731 B738 Liège Airport (EBLG)
09/28/2019 CPX731 B738 Liège Airport (EBLG)
09/28/2019 CPX731 B738 Liège Airport (EBLG)
Recent Departures
Date Flight Type Arrive
03/26/2020 CPX1132 B738 Liège Airport (EBLG)
01/15/2020 CPX1132 B738 Liège Airport (EBLG)
11/27/2019 CPX1132 B738 Liège Airport (EBLG)
10/29/2019 CPX732 B738 Liège Airport (EBLG)
09/28/2019 CPX732 B738 Liège Airport (EBLG)
09/28/2019 CPX732 B738 Liège Airport (EBLG)